Galicia — ECEC — position and weather

sailwx.info

Track history (hours):
 
Tides and Currents Weather Stations Pressure Air Temp Water Temp Dewpoint Dewpoint Depression Visibility Wind Speed Wind Dir Waves Ship Positions

Galicia

Last reported at 2016-Feb-07 08:21 UTC. Time now 2016-Feb-07 13:08 UTC.
Position N 37°05' W 001°14'.

Length 149 m; draft 5.2 m.

Type: Cargo ship. MMSI: 224548000.

Date/timePositionNaut miles runAvg speedWind from/ knotsBaromVisibWave heightAir tempDewpointWater temp
2016-Feb-07 08:21N 37°05' W 001°14'1113.4
2016-Feb-07 07:32N 37°13' W 001°04'1211.7
2016-Feb-07 06:33N 37°20' W 000°53'9 8.5
2016-Feb-07 05:33N 37°26' W 000°45'8 8.3
2016-Feb-07 04:33N 37°31' W 000°37'8 8.0
2016-Feb-07 03:33N 37°37' W 000°31'8 8.2
2016-Feb-07 02:33N 37°44' W 000°25'8 8.5
2016-Feb-07 01:33N 37°51' W 000°19'141 9.1
2016-Feb-06 10:08N 39°52' E 001°13'5 9.4
2016-Feb-06 09:33N 39°57' E 001°16'10 9.7
2016-Feb-06 08:33N 40°06' E 001°22'10 9.8
2016-Feb-06 07:33N 40°14' E 001°29'10 9.8
2016-Feb-06 06:33N 40°23' E 001°35'10 9.8
2016-Feb-06 05:33N 40°31' E 001°41'10 9.7
2016-Feb-06 04:33N 40°40' E 001°47'10 9.8
2016-Feb-06 03:33N 40°48' E 001°53'1010.0
2016-Feb-06 02:33N 40°57' E 001°60'1010.2
2016-Feb-06 01:33N 41°06' E 002°06'16 2.0
2016-Feb-05 17:30N 41°22' E 002°11'0 0.0
2016-Feb-05 16:15N 41°22' E 002°11'0 0.6
2016-Feb-05 15:32N 41°22' E 002°11'3 2.8
2016-Feb-05 14:32N 41°19' E 002°12'0 0.0
2016-Feb-05 13:32N 41°19' E 002°12'0 0.1
2016-Feb-05 12:33N 41°19' E 002°12'0 0.0
2016-Feb-05 11:33N 41°19' E 002°12'0 0.0
2016-Feb-05 10:33N 41°19' E 002°12'0 0.0
2016-Feb-05 09:33N 41°19' E 002°12'0 0.0
2016-Feb-05 08:31N 41°19' E 002°12'0 0.1
2016-Feb-05 07:32N 41°19' E 002°12'0 0.1
2016-Feb-05 06:33N 41°19' E 002°12'0 0.1
2016-Feb-05 05:33N 41°19' E 002°12'0 0.1
2016-Feb-05 04:33N 41°19' E 002°12'0 0.0
2016-Feb-05 03:33N 41°19' E 002°12'0 0.0
2016-Feb-03 17:27N 41°19' E 002°11'0 0.0
2016-Feb-03 16:33N 41°19' E 002°11'0 0.0
2016-Feb-03 13:32N 41°19' E 002°12'0 0.0
2016-Feb-02 23:07N 41°19' E 002°11'0 0.0
2016-Feb-02 21:31N 41°19' E 002°11'0 0.0
2016-Feb-02 20:22N 41°19' E 002°11'0 0.0
2016-Feb-02 18:09N 41°19' E 002°12'0 0.0
2016-Feb-02 17:33N 41°19' E 002°12'0 0.0
2016-Feb-02 16:30N 41°19' E 002°12'0 0.0
2016-Feb-02 15:33N 41°19' E 002°12'0 0.0
2016-Feb-02 14:32N 41°19' E 002°12'0 0.0
2016-Feb-02 13:31N 41°19' E 002°12'0 0.0
2016-Feb-02 12:32N 41°19' E 002°12'0 0.0
2016-Feb-02 11:33N 41°19' E 002°12'0 0.0
2016-Feb-02 09:30N 41°19' E 002°11'0 0.0
2016-Feb-02 08:33N 41°19' E 002°12'0 0.0
2016-Feb-02 07:30N 41°19' E 002°12'0 0.0
2016-Feb-02 05:18N 41°19' E 002°12'0 0.0
2016-Feb-02 04:31N 41°19' E 002°12'0 0.0
2016-Feb-02 03:33N 41°19' E 002°12'0 0.0
2016-Feb-02 02:33N 41°19' E 002°12'0 0.0
2016-Feb-02 01:32N 41°19' E 002°12'0 0.0
2016-Feb-02 00:31N 41°19' E 002°12'0 0.0
2016-Feb-01 22:33N 41°19' E 002°12'0 0.0
2016-Feb-01 21:25N 41°19' E 002°12'0 0.0
2016-Feb-01 20:33N 41°19' E 002°12'0 0.0
2016-Feb-01 17:18N 41°19' E 002°12'0 0.0
2016-Feb-01 16:03N 41°19' E 002°12'0 0.1
2016-Feb-01 15:33N 41°19' E 002°12'0 0.0
2016-Feb-01 14:33N 41°19' E 002°12'1 0.7
2016-Feb-01 13:28N 41°18' E 002°12'9 8.8
2016-Feb-01 12:30N 41°10' E 002°09'910.0
2016-Feb-01 11:33N 41°01' E 002°04'1010.0
2016-Feb-01 10:33N 40°53' E 001°57'10 9.9
2016-Feb-01 09:33N 40°44' E 001°51'1010.0
2016-Feb-01 08:33N 40°35' E 001°45'10 9.9
2016-Feb-01 07:33N 40°26' E 001°39'10 9.6
2016-Feb-01 06:33N 40°18' E 001°33'10 9.5
2016-Feb-01 05:33N 40°09' E 001°27'10 9.7
2016-Feb-01 04:33N 40°01' E 001°22'10 9.9
2016-Feb-01 03:33N 39°52' E 001°15'7110.0
2016-Jan-31 20:24N 38°48' E 000°33'2010.5
2016-Jan-31 18:31N 38°32' E 000°19'2410.6
2016-Jan-31 16:15N 38°12' E 000°02'710.1
2016-Jan-31 15:33N 38°06' W 000°03'1010.4
2016-Jan-31 14:33N 37°57' W 000°10'1010.2
2016-Jan-31 13:33N 37°49' W 000°17'1010.0
2016-Jan-31 12:34N 37°40' W 000°24'1010.1
2016-Jan-31 11:33N 37°32' W 000°32'1010.0
2016-Jan-31 10:33N 37°26' W 000°41'10 9.8
2016-Jan-31 09:33N 37°19' W 000°51'10 9.9
2016-Jan-31 08:33N 37°13' W 000°60'1010.2
2016-Jan-31 07:32N 37°06' W 001°10'20910.0
2016-Jan-30 10:33N 35°59' W 005°17'  
Track history (hours):
 
Tides and Currents Weather Stations Pressure Air Temp Water Temp Dewpoint Dewpoint Depression Visibility Wind Speed Wind Dir Waves Ship Positions

Galicia

Last reported at 2016-Feb-07 08:21 UTC. Time now 2016-Feb-07 13:08 UTC.
Position N 37°05' W 001°14'.

Length 149 m; draft 5.2 m.

Type: Cargo ship. MMSI: 224548000.

Date/timePositionNaut miles runAvg speedWind from/ knotsBaromVisibWave heightAir tempDewpointWater temp
2016-Feb-07 08:21N 37°05' W 001°14'1113.4
2016-Feb-07 07:32N 37°13' W 001°04'1211.7
2016-Feb-07 06:33N 37°20' W 000°53'9 8.5
2016-Feb-07 05:33N 37°26' W 000°45'8 8.3
2016-Feb-07 04:33N 37°31' W 000°37'8 8.0
2016-Feb-07 03:33N 37°37' W 000°31'8 8.2
2016-Feb-07 02:33N 37°44' W 000°25'8 8.5
2016-Feb-07 01:33N 37°51' W 000°19'141 9.1
2016-Feb-06 10:08N 39°52' E 001°13'5 9.4
2016-Feb-06 09:33N 39°57' E 001°16'10 9.7
2016-Feb-06 08:33N 40°06' E 001°22'10 9.8
2016-Feb-06 07:33N 40°14' E 001°29'10 9.8
2016-Feb-06 06:33N 40°23' E 001°35'10 9.8
2016-Feb-06 05:33N 40°31' E 001°41'10 9.7
2016-Feb-06 04:33N 40°40' E 001°47'10 9.8
2016-Feb-06 03:33N 40°48' E 001°53'1010.0
2016-Feb-06 02:33N 40°57' E 001°60'1010.2
2016-Feb-06 01:33N 41°06' E 002°06'16 2.0
2016-Feb-05 17:30N 41°22' E 002°11'0 0.0
2016-Feb-05 16:15N 41°22' E 002°11'0 0.6
2016-Feb-05 15:32N 41°22' E 002°11'3 2.8
2016-Feb-05 14:32N 41°19' E 002°12'0 0.0
2016-Feb-05 13:32N 41°19' E 002°12'0 0.1
2016-Feb-05 12:33N 41°19' E 002°12'0 0.0
2016-Feb-05 11:33N 41°19' E 002°12'0 0.0
2016-Feb-05 10:33N 41°19' E 002°12'0 0.0
2016-Feb-05 09:33N 41°19' E 002°12'0 0.0
2016-Feb-05 08:31N 41°19' E 002°12'0 0.1
2016-Feb-05 07:32N 41°19' E 002°12'0 0.1
2016-Feb-05 06:33N 41°19' E 002°12'0 0.1
2016-Feb-05 05:33N 41°19' E 002°12'0 0.1
2016-Feb-05 04:33N 41°19' E 002°12'0 0.0
2016-Feb-05 03:33N 41°19' E 002°12'0 0.0
2016-Feb-03 17:27N 41°19' E 002°11'0 0.0
2016-Feb-03 16:33N 41°19' E 002°11'0 0.0
2016-Feb-03 13:32N 41°19' E 002°12'0 0.0
2016-Feb-02 23:07N 41°19' E 002°11'0 0.0
2016-Feb-02 21:31N 41°19' E 002°11'0 0.0
2016-Feb-02 20:22N 41°19' E 002°11'0 0.0
2016-Feb-02 18:09N 41°19' E 002°12'0 0.0
2016-Feb-02 17:33N 41°19' E 002°12'0 0.0
2016-Feb-02 16:30N 41°19' E 002°12'0 0.0
2016-Feb-02 15:33N 41°19' E 002°12'0 0.0
2016-Feb-02 14:32N 41°19' E 002°12'0 0.0
2016-Feb-02 13:31N 41°19' E 002°12'0 0.0
2016-Feb-02 12:32N 41°19' E 002°12'0 0.0
2016-Feb-02 11:33N 41°19' E 002°12'0 0.0
2016-Feb-02 09:30N 41°19' E 002°11'0 0.0
2016-Feb-02 08:33N 41°19' E 002°12'0 0.0
2016-Feb-02 07:30N 41°19' E 002°12'0 0.0
2016-Feb-02 05:18N 41°19' E 002°12'0 0.0
2016-Feb-02 04:31N 41°19' E 002°12'0 0.0
2016-Feb-02 03:33N 41°19' E 002°12'0 0.0
2016-Feb-02 02:33N 41°19' E 002°12'0 0.0
2016-Feb-02 01:32N 41°19' E 002°12'0 0.0
2016-Feb-02 00:31N 41°19' E 002°12'0 0.0
2016-Feb-01 22:33N 41°19' E 002°12'0 0.0
2016-Feb-01 21:25N 41°19' E 002°12'0 0.0
2016-Feb-01 20:33N 41°19' E 002°12'0 0.0
2016-Feb-01 17:18N 41°19' E 002°12'0 0.0
2016-Feb-01 16:03N 41°19' E 002°12'0 0.1
2016-Feb-01 15:33N 41°19' E 002°12'0 0.0
2016-Feb-01 14:33N 41°19' E 002°12'1 0.7
2016-Feb-01 13:28N 41°18' E 002°12'9 8.8
2016-Feb-01 12:30N 41°10' E 002°09'910.0
2016-Feb-01 11:33N 41°01' E 002°04'1010.0
2016-Feb-01 10:33N 40°53' E 001°57'10 9.9
2016-Feb-01 09:33N 40°44' E 001°51'1010.0
2016-Feb-01 08:33N 40°35' E 001°45'10 9.9
2016-Feb-01 07:33N 40°26' E 001°39'10 9.6
2016-Feb-01 06:33N 40°18' E 001°33'10 9.5
2016-Feb-01 05:33N 40°09' E 001°27'10 9.7
2016-Feb-01 04:33N 40°01' E 001°22'10 9.9
2016-Feb-01 03:33N 39°52' E 001°15'7110.0
2016-Jan-31 20:24N 38°48' E 000°33'2010.5
2016-Jan-31 18:31N 38°32' E 000°19'2410.6
2016-Jan-31 16:15N 38°12' E 000°02'710.1
2016-Jan-31 15:33N 38°06' W 000°03'1010.4
2016-Jan-31 14:33N 37°57' W 000°10'1010.2
2016-Jan-31 13:33N 37°49' W 000°17'1010.0
2016-Jan-31 12:34N 37°40' W 000°24'1010.1
2016-Jan-31 11:33N 37°32' W 000°32'1010.0
2016-Jan-31 10:33N 37°26' W 000°41'10 9.8
2016-Jan-31 09:33N 37°19' W 000°51'10 9.9
2016-Jan-31 08:33N 37°13' W 000°60'1010.2
2016-Jan-31 07:32N 37°06' W 001°10'20910.0
2016-Jan-30 10:33N 35°59' W 005°17'  

Dump ship's entire track history